createdAt,value
2022-09-26T00:00:58.882Z,63.84
2022-09-26T00:01:58.884Z,64.41
2022-09-26T00:02:58.840Z,63.97
2022-09-26T00:03:58.809Z,64.89
2022-09-26T00:04:58.793Z,66.03
2022-09-26T00:05:58.783Z,64.00
2022-09-26T00:06:58.798Z,65.64
2022-09-26T00:07:58.776Z,65.23
2022-09-26T00:08:58.767Z,65.18
2022-09-26T00:09:58.745Z,63.51
2022-09-26T00:10:58.733Z,64.52
2022-09-26T00:11:58.755Z,61.35
2022-09-26T00:12:58.734Z,64.07
2022-09-26T00:13:58.702Z,64.14
2022-09-26T00:14:58.700Z,62.87
2022-09-26T00:15:58.689Z,64.72
2022-09-26T00:16:58.775Z,63.19
2022-09-26T00:17:58.688Z,62.97
2022-09-26T00:18:58.663Z,61.70
2022-09-26T00:19:58.702Z,62.76
2022-09-26T00:20:58.633Z,61.42
2022-09-26T00:21:58.640Z,62.25
2022-09-26T00:22:58.638Z,63.28
2022-09-26T00:23:58.623Z,62.70
2022-09-26T00:24:58.597Z,62.47
2022-09-26T00:25:58.593Z,60.11
2022-09-26T00:26:58.588Z,60.44
2022-09-26T00:27:58.624Z,61.68
2022-09-26T00:28:58.556Z,62.86
2022-09-26T00:29:58.557Z,64.00
2022-09-26T00:30:58.569Z,62.84
2022-09-26T00:31:58.564Z,61.55
2022-09-26T00:32:58.553Z,61.84
2022-09-26T00:33:58.518Z,61.81
2022-09-26T00:34:58.507Z,60.86
2022-09-26T00:35:58.502Z,61.59
2022-09-26T00:36:58.485Z,61.82
2022-09-26T00:37:58.496Z,62.21
2022-09-26T00:38:58.474Z,62.24
2022-09-26T00:39:58.536Z,63.65
2022-09-26T00:40:58.584Z,62.64
2022-09-26T00:41:58.440Z,61.41
2022-09-26T00:42:58.468Z,63.92
2022-09-26T00:43:58.421Z,62.46
2022-09-26T00:44:58.407Z,62.14
2022-09-26T00:45:58.455Z,61.99
2022-09-26T00:46:58.388Z,64.29
2022-09-26T00:47:58.395Z,62.33
2022-09-26T00:48:58.370Z,62.46
2022-09-26T00:49:58.361Z,62.20
2022-09-26T00:50:58.349Z,62.07
2022-09-26T00:51:58.336Z,62.77
2022-09-26T00:52:58.347Z,62.55
2022-09-26T00:53:58.328Z,63.45
2022-09-26T00:54:58.301Z,62.51
2022-09-26T00:55:58.307Z,63.64
2022-09-26T00:56:58.277Z,64.01
2022-09-26T00:57:58.295Z,63.85
2022-09-26T00:58:58.257Z,64.40
2022-09-26T00:59:58.246Z,61.92
2022-09-26T01:00:58.347Z,61.71
2022-09-26T01:01:58.327Z,61.77
2022-09-26T01:02:58.234Z,62.67
2022-09-26T01:03:58.200Z,62.43
2022-09-26T01:04:58.199Z,62.69
2022-09-26T01:05:58.181Z,61.97
2022-09-26T01:06:58.173Z,63.54
2022-09-26T01:07:58.173Z,64.27
2022-09-26T01:08:58.155Z,64.50
2022-09-26T01:09:58.181Z,62.47
2022-09-26T01:10:58.136Z,64.52
2022-09-26T01:11:58.119Z,63.66
2022-09-26T01:12:58.136Z,62.89
2022-09-26T01:13:58.089Z,63.05
2022-09-26T01:14:58.097Z,64.05
2022-09-26T01:15:58.077Z,63.61
2022-09-26T01:16:58.101Z,63.93
2022-09-26T01:17:58.091Z,62.96
2022-09-26T01:18:58.050Z,62.23
2022-09-26T01:19:58.039Z,64.23
2022-09-26T01:20:58.037Z,63.59
2022-09-26T01:21:58.032Z,63.08
2022-09-26T01:22:58.008Z,63.61
2022-09-26T01:23:58.004Z,61.91
2022-09-26T01:24:57.984Z,63.26
2022-09-26T01:25:57.973Z,61.39
2022-09-26T01:26:57.964Z,62.01
2022-09-26T01:27:58.024Z,62.72
2022-09-26T01:28:57.959Z,63.31
2022-09-26T01:29:57.943Z,63.34
2022-09-26T01:30:57.966Z,63.81
2022-09-26T01:31:57.900Z,63.48
2022-09-26T01:32:57.900Z,63.99
2022-09-26T01:33:57.911Z,64.27
2022-09-26T01:34:57.885Z,61.54
2022-09-26T01:35:57.866Z,60.90
2022-09-26T01:36:57.853Z,61.91
2022-09-26T01:37:57.850Z,63.01
2022-09-26T01:38:57.860Z,62.28
2022-09-26T01:39:57.828Z,63.04
2022-09-26T01:40:57.865Z,63.16
2022-09-26T01:41:57.820Z,62.05
2022-09-26T01:42:57.796Z,63.69
2022-09-26T01:43:57.804Z,64.32
2022-09-26T01:44:57.771Z,62.07
2022-09-26T01:45:57.836Z,62.96
2022-09-26T01:46:57.753Z,62.20
2022-09-26T01:47:57.741Z,64.63
2022-09-26T01:48:57.754Z,62.48
2022-09-26T01:49:57.730Z,63.51
2022-09-26T01:50:57.708Z,62.80
2022-09-26T01:51:57.702Z,63.99
2022-09-26T01:52:57.686Z,62.93
2022-09-26T01:53:57.698Z,64.57
2022-09-26T01:54:57.671Z,62.23
2022-09-26T01:55:57.654Z,63.75
2022-09-26T01:56:57.643Z,63.59
2022-09-26T01:57:57.679Z,63.79
2022-09-26T01:58:57.642Z,64.35
2022-09-26T01:59:57.606Z,63.33
2022-09-26T02:00:57.641Z,64.46
2022-09-26T02:01:57.628Z,65.22
2022-09-26T02:02:57.587Z,64.47
2022-09-26T02:03:57.600Z,63.43
2022-09-26T02:04:57.560Z,64.24
2022-09-26T02:05:57.559Z,64.46
2022-09-26T02:06:57.564Z,64.23
2022-09-26T02:07:57.537Z,64.10
2022-09-26T02:08:57.532Z,64.49
2022-09-26T02:09:57.508Z,64.98
2022-09-26T02:10:57.494Z,62.33
2022-09-26T02:11:57.494Z,63.53
2022-09-26T02:12:57.477Z,62.96
2022-09-26T02:13:57.483Z,62.66
2022-09-26T02:14:57.439Z,63.56
2022-09-26T02:15:57.468Z,61.52
2022-09-26T02:16:57.454Z,62.02
2022-09-26T02:17:57.423Z,62.13
2022-09-26T02:18:57.447Z,61.10
2022-09-26T02:19:57.395Z,65.55
2022-09-26T02:20:57.387Z,63.53
2022-09-26T02:21:57.404Z,62.53
2022-09-26T02:22:57.375Z,63.24
2022-09-26T02:23:57.376Z,63.05
2022-09-26T02:24:57.365Z,64.42
2022-09-26T02:25:57.341Z,64.46
2022-09-26T02:26:57.338Z,63.74
2022-09-26T02:27:57.313Z,64.83
2022-09-26T02:28:57.329Z,64.19
2022-09-26T02:29:57.306Z,64.30
2022-09-26T02:30:57.278Z,63.84
2022-09-26T02:31:57.487Z,62.69
2022-09-26T02:32:57.363Z,62.24
2022-09-26T02:33:57.276Z,62.26
2022-09-26T02:34:57.259Z,62.98
2022-09-26T02:35:57.232Z,60.15
2022-09-26T02:36:57.225Z,63.92
2022-09-26T02:37:57.224Z,62.52
2022-09-26T02:38:57.210Z,64.79
2022-09-26T02:39:57.228Z,64.20
2022-09-26T02:40:57.279Z,62.82
2022-09-26T02:41:57.246Z,62.50
2022-09-26T02:42:57.160Z,63.31
2022-09-26T02:43:57.170Z,65.36
2022-09-26T02:44:57.146Z,63.91
2022-09-26T02:45:57.225Z,65.89
2022-09-26T02:46:57.121Z,62.57
2022-09-26T02:47:57.113Z,64.40
2022-09-26T02:48:57.119Z,65.47
2022-09-26T02:49:57.094Z,64.55
2022-09-26T02:50:57.074Z,63.84
2022-09-26T02:51:57.064Z,65.81
2022-09-26T02:52:57.076Z,64.16
2022-09-26T02:53:57.083Z,63.81
2022-09-26T02:54:57.043Z,64.97
2022-09-26T02:55:57.039Z,62.02
2022-09-26T02:56:57.020Z,64.83
2022-09-26T02:57:57.017Z,64.69
2022-09-26T02:58:57.023Z,63.84
2022-09-26T02:59:56.990Z,65.49
2022-09-26T03:00:57.023Z,64.11
2022-09-26T03:01:56.979Z,65.58
2022-09-26T03:02:56.961Z,63.86
2022-09-26T03:03:57.048Z,65.94
2022-09-26T03:04:57.017Z,62.84
2022-09-26T03:05:56.935Z,63.02
2022-09-26T03:06:56.922Z,65.18
2022-09-26T03:07:56.924Z,65.25
2022-09-26T03:08:56.917Z,63.39
2022-09-26T03:09:56.889Z,63.94
2022-09-26T03:10:56.868Z,63.76
2022-09-26T03:11:56.872Z,63.05
2022-09-26T03:12:56.864Z,63.82
2022-09-26T03:13:56.930Z,62.90
2022-09-26T03:14:58.793Z,63.01
2022-09-26T03:15:57.863Z,64.22
2022-09-26T03:16:56.882Z,64.94
2022-09-26T03:17:56.808Z,63.67
2022-09-26T03:18:56.808Z,64.32
2022-09-26T03:19:56.865Z,65.01
2022-09-26T03:20:56.767Z,65.05
2022-09-26T03:21:56.770Z,65.84
2022-09-26T03:22:56.767Z,64.59
2022-09-26T03:23:56.761Z,65.73
2022-09-26T03:24:56.741Z,65.77
2022-09-26T03:25:56.728Z,65.32
2022-09-26T03:26:56.713Z,64.81
2022-09-26T03:27:56.710Z,65.75
2022-09-26T03:28:56.717Z,64.41
2022-09-26T03:29:56.748Z,64.70
2022-09-26T03:30:56.677Z,65.31
2022-09-26T03:31:56.738Z,65.02
2022-09-26T03:32:56.666Z,64.76
2022-09-26T03:33:56.671Z,64.68
2022-09-26T03:34:56.625Z,66.00
2022-09-26T03:35:56.701Z,66.37
2022-09-26T03:36:56.604Z,65.06
2022-09-26T03:37:56.607Z,64.96
2022-09-26T03:38:56.622Z,65.99
2022-09-26T03:39:56.589Z,66.55
2022-09-26T03:40:56.640Z,65.71
2022-09-26T03:41:56.579Z,64.95
2022-09-26T03:42:56.558Z,65.24
2022-09-26T03:43:56.601Z,64.92
2022-09-26T03:44:56.538Z,64.95
2022-09-26T03:45:56.559Z,65.10
2022-09-26T03:46:56.515Z,66.59
2022-09-26T03:47:56.502Z,64.48
2022-09-26T03:48:56.515Z,65.46
2022-09-26T03:49:56.483Z,67.01
2022-09-26T03:50:56.493Z,66.46
2022-09-26T03:51:56.461Z,66.04
2022-09-26T03:52:56.460Z,64.60
2022-09-26T03:53:56.450Z,64.91
2022-09-26T03:54:56.430Z,65.65
2022-09-26T03:55:56.418Z,66.17
2022-09-26T03:56:56.411Z,65.98
2022-09-26T03:57:56.394Z,66.96
2022-09-26T03:58:56.405Z,66.76
2022-09-26T03:59:56.379Z,66.32
2022-09-26T04:00:56.407Z,65.74
2022-09-26T04:01:56.376Z,64.81
2022-09-26T04:02:56.354Z,65.10
2022-09-26T04:03:56.354Z,66.29
2022-09-26T04:04:56.359Z,65.12
2022-09-26T04:05:56.309Z,66.85
2022-09-26T04:06:56.311Z,65.87
2022-09-26T04:07:56.300Z,65.77
2022-09-26T04:08:56.312Z,64.67
2022-09-26T04:09:56.271Z,66.97
2022-09-26T04:10:56.273Z,67.33
2022-09-26T04:11:56.259Z,66.64
2022-09-26T04:12:56.249Z,65.32
2022-09-26T04:13:56.273Z,66.42
2022-09-26T04:14:56.226Z,64.35
2022-09-26T04:15:56.297Z,66.12
2022-09-26T04:16:56.215Z,66.53
2022-09-26T04:17:56.202Z,65.73
2022-09-26T04:18:56.216Z,64.99
2022-09-26T04:19:56.180Z,64.46
2022-09-26T04:20:56.171Z,66.77
2022-09-26T04:21:56.148Z,64.90
2022-09-26T04:22:56.152Z,67.28
2022-09-26T04:23:56.156Z,66.01
2022-09-26T04:24:56.132Z,67.69
2022-09-26T04:25:56.120Z,67.42
2022-09-26T04:26:56.105Z,67.09
2022-09-26T04:27:56.095Z,68.52
2022-09-26T04:28:56.121Z,68.22
2022-09-26T04:29:56.065Z,67.53
2022-09-26T04:30:56.075Z,69.41
2022-09-26T04:31:56.106Z,67.78
2022-09-26T04:32:56.041Z,69.46
2022-09-26T04:33:56.053Z,67.87
2022-09-26T04:34:56.053Z,67.90
2022-09-26T04:35:56.016Z,68.62
2022-09-26T04:36:56.005Z,69.16
2022-09-26T04:37:55.994Z,68.22
2022-09-26T04:38:56.004Z,67.26
2022-09-26T04:39:55.971Z,69.11
2022-09-26T04:40:56.059Z,69.25
2022-09-26T04:41:55.945Z,66.88
2022-09-26T04:42:55.949Z,69.15
2022-09-26T04:43:55.954Z,67.76
2022-09-26T04:44:55.920Z,67.68
2022-09-26T04:45:55.967Z,67.70
2022-09-26T04:46:55.897Z,67.32
2022-09-26T04:47:55.894Z,68.49
2022-09-26T04:48:55.924Z,66.55
2022-09-26T04:49:55.854Z,68.34
2022-09-26T04:50:55.860Z,67.16
2022-09-26T04:51:55.849Z,67.31
2022-09-26T04:52:55.834Z,67.76
2022-09-26T04:53:55.841Z,67.36
2022-09-26T04:54:55.806Z,68.05
2022-09-26T04:55:55.806Z,66.66
2022-09-26T04:56:55.796Z,66.88
2022-09-26T04:57:55.782Z,66.35
2022-09-26T04:58:55.792Z,67.00
2022-09-26T04:59:55.763Z,67.22
2022-09-26T05:00:55.836Z,67.18
2022-09-26T05:01:55.776Z,67.30
2022-09-26T05:02:55.728Z,67.89
2022-09-26T05:03:55.739Z,68.01
2022-09-26T05:04:55.704Z,66.37
2022-09-26T05:05:55.686Z,67.72
2022-09-26T05:06:55.690Z,68.39
2022-09-26T05:07:55.690Z,67.98
2022-09-26T05:08:55.680Z,67.22
2022-09-26T05:12:16.796Z,65.85
2022-09-26T05:13:16.797Z,67.15
2022-09-26T05:14:17.892Z,67.95
2022-09-26T05:15:17.886Z,67.17
2022-09-26T05:16:17.925Z,66.07
2022-09-26T05:17:17.863Z,66.22
2022-09-26T05:18:17.866Z,65.87
2022-09-26T05:19:17.838Z,66.56
2022-09-26T05:20:17.834Z,66.62
2022-09-26T05:21:17.817Z,67.15
2022-09-26T05:22:17.806Z,66.46
2022-09-26T05:23:17.811Z,66.35
2022-09-26T05:24:17.784Z,66.16
2022-09-26T05:25:17.769Z,66.74
2022-09-26T05:26:17.759Z,67.03
2022-09-26T05:27:17.746Z,66.21
2022-09-26T05:28:17.776Z,66.17
2022-09-26T05:29:17.847Z,65.57
2022-09-26T05:30:17.746Z,65.10
2022-09-26T05:31:17.780Z,66.38
2022-09-26T05:32:17.706Z,67.27
2022-09-26T05:33:17.709Z,65.51
2022-09-26T05:34:20.102Z,66.70
2022-09-26T05:35:18.664Z,65.87
2022-09-26T05:36:17.658Z,65.93
2022-09-26T05:37:17.654Z,65.46
2022-09-26T05:38:17.663Z,67.52
2022-09-26T05:39:17.635Z,66.72
2022-09-26T05:40:17.661Z,66.52
2022-09-26T05:41:17.612Z,66.08
2022-09-26T05:42:17.600Z,67.08
2022-09-26T05:43:17.599Z,66.11
2022-09-26T05:44:17.611Z,66.97
2022-09-26T05:45:17.578Z,66.52
2022-09-26T05:46:17.633Z,67.22
2022-09-26T05:47:17.534Z,66.71
2022-09-26T05:48:17.561Z,67.49
2022-09-26T05:49:17.529Z,66.21
2022-09-26T05:50:17.561Z,66.67
2022-09-26T05:51:17.514Z,66.02
2022-09-26T05:52:17.508Z,66.66
2022-09-26T05:53:17.501Z,65.97
2022-09-26T05:54:17.483Z,66.28
2022-09-26T05:55:17.480Z,66.97
2022-09-26T05:56:19.031Z,65.93
2022-09-26T05:57:18.457Z,66.85
2022-09-26T05:58:17.496Z,67.40
2022-09-26T05:59:17.426Z,65.89
2022-09-26T06:00:17.439Z,66.15
2022-09-26T06:01:17.472Z,65.94
2022-09-26T06:02:20.868Z,65.04
2022-09-26T06:03:18.412Z,65.74
2022-09-26T06:04:17.382Z,65.57
2022-09-26T06:05:17.368Z,64.90
2022-09-26T06:06:17.363Z,65.81
2022-09-26T06:07:17.375Z,64.78
2022-09-26T06:08:17.467Z,64.55
2022-09-26T06:09:17.354Z,64.84
2022-09-26T06:10:17.319Z,65.25
2022-09-26T06:11:17.307Z,64.70
2022-09-26T06:12:17.304Z,65.44
2022-09-26T06:13:17.313Z,65.59
2022-09-26T06:14:17.282Z,66.19
2022-09-26T06:15:17.352Z,66.14
2022-09-26T06:16:17.352Z,65.34
2022-09-26T06:17:17.289Z,66.32
2022-09-26T06:18:17.267Z,66.42
2022-09-26T06:19:22.055Z,65.74
2022-09-26T06:20:17.244Z,65.87
2022-09-26T06:21:17.218Z,67.11
2022-09-26T06:22:17.201Z,65.62
2022-09-26T06:23:17.201Z,66.00
2022-09-26T06:24:17.183Z,65.74
2022-09-26T06:25:17.164Z,66.32
2022-09-26T06:26:18.171Z,65.99
2022-09-26T06:27:17.147Z,65.92
2022-09-26T06:28:17.162Z,64.98
2022-09-26T06:29:17.138Z,66.08
2022-09-26T06:30:17.120Z,65.91
2022-09-26T06:31:17.263Z,65.75
2022-09-26T06:32:17.104Z,64.10
2022-09-26T06:33:17.103Z,64.90
2022-09-26T06:34:17.078Z,66.08
2022-09-26T06:35:17.091Z,65.48
2022-09-26T06:36:17.064Z,64.60
2022-09-26T06:37:17.054Z,63.98
2022-09-26T06:38:17.070Z,65.17
2022-09-26T06:39:17.190Z,65.93
2022-09-26T06:40:17.084Z,65.16
2022-09-26T06:41:17.023Z,64.51
2022-09-26T06:42:17.001Z,67.02
2022-09-26T06:43:16.991Z,65.21
2022-09-26T06:44:17.004Z,64.31
2022-09-26T06:45:16.980Z,65.63
2022-09-26T06:46:17.029Z,64.97
2022-09-26T06:47:17.094Z,63.73
2022-09-26T06:48:21.028Z,64.32
2022-09-26T06:49:17.949Z,65.82
2022-09-26T06:50:16.931Z,64.39
2022-09-26T06:51:16.912Z,64.50
2022-09-26T06:52:16.909Z,63.69
2022-09-26T06:53:16.894Z,64.20
2022-09-26T06:54:16.901Z,64.35
2022-09-26T06:55:16.872Z,63.55
2022-09-26T06:56:16.861Z,64.48
2022-09-26T06:57:16.847Z,65.23
2022-09-26T06:58:16.857Z,65.89
2022-09-26T06:59:16.910Z,65.01
2022-09-26T07:00:16.820Z,63.86
2022-09-26T07:01:17.043Z,63.78
2022-09-26T07:02:16.840Z,63.97
2022-09-26T07:03:16.781Z,65.49
2022-09-26T07:04:16.803Z,64.96
2022-09-26T07:05:16.773Z,64.40
2022-09-26T07:06:16.758Z,64.46
2022-09-26T07:07:16.747Z,65.22
2022-09-26T07:08:16.742Z,64.24
2022-09-26T07:09:17.068Z,64.04
2022-09-26T07:10:16.753Z,64.35
2022-09-26T07:11:35.130Z,63.83
2022-09-26T07:12:18.710Z,64.78
2022-09-26T07:13:16.693Z,64.89
2022-09-26T07:14:16.702Z,64.98
2022-09-26T07:15:16.671Z,64.41
2022-09-26T07:16:16.741Z,64.61
2022-09-26T07:17:16.648Z,64.59
2022-09-26T07:18:16.631Z,63.21
2022-09-26T07:19:16.651Z,64.48
2022-09-26T07:20:16.623Z,64.25
2022-09-26T07:21:16.615Z,64.21
2022-09-26T07:22:16.606Z,63.92
2022-09-26T07:23:16.597Z,64.48
2022-09-26T07:24:16.604Z,64.62
2022-09-26T07:25:16.582Z,63.72
2022-09-26T07:26:16.630Z,64.58
2022-09-26T07:27:16.556Z,63.36
2022-09-26T07:28:16.550Z,63.38
2022-09-26T07:29:16.570Z,64.44
2022-09-26T07:30:16.530Z,64.75
2022-09-26T07:31:16.572Z,64.13
2022-09-26T07:32:16.513Z,63.83
2022-09-26T07:33:16.505Z,64.83
2022-09-26T07:34:18.581Z,64.67
2022-09-26T07:35:16.481Z,65.03
2022-09-26T07:36:16.474Z,63.88
2022-09-26T07:37:16.460Z,65.50
2022-09-26T07:38:16.461Z,63.59
2022-09-26T07:39:16.668Z,63.83
2022-09-26T07:40:16.463Z,65.27
2022-09-26T07:41:16.413Z,64.96
2022-09-26T07:42:16.406Z,64.06
2022-09-26T07:43:20.049Z,65.68
2022-09-26T07:45:27.957Z,63.78
2022-09-26T07:46:18.430Z,65.49
2022-09-26T07:47:16.472Z,65.54
2022-09-26T07:48:16.352Z,65.51
2022-09-26T07:49:18.062Z,65.52
2022-09-26T07:50:16.335Z,64.60
2022-09-26T07:51:16.383Z,63.90
2022-09-26T07:52:16.322Z,64.84
2022-09-26T07:53:16.307Z,64.48
2022-09-26T07:54:16.382Z,65.68
2022-09-26T07:55:16.276Z,65.22
2022-09-26T07:56:16.290Z,66.58
2022-09-26T07:57:16.274Z,65.53
2022-09-26T07:58:16.241Z,64.79
2022-09-26T07:59:16.259Z,65.72
2022-09-26T08:00:16.226Z,66.08
2022-09-26T08:01:16.261Z,65.09
2022-09-26T08:02:16.273Z,67.00
2022-09-26T08:03:16.297Z,64.88
2022-09-26T08:04:16.272Z,63.37
2022-09-26T08:05:16.180Z,64.54
2022-09-26T08:06:16.167Z,63.49
2022-09-26T08:07:16.153Z,65.52
2022-09-26T08:08:16.148Z,64.40
2022-09-26T08:09:16.307Z,66.69
2022-09-26T08:10:16.108Z,65.99
2022-09-26T08:11:16.131Z,65.77
2022-09-26T08:12:16.109Z,64.61
2022-09-26T08:13:16.094Z,66.13
2022-09-26T08:14:16.204Z,64.25
2022-09-26T08:15:16.066Z,65.93
2022-09-26T08:16:16.101Z,64.55
2022-09-26T08:17:16.041Z,64.18
2022-09-26T08:18:16.043Z,64.65
2022-09-26T08:19:16.120Z,63.66
2022-09-26T08:20:16.027Z,64.86
2022-09-26T08:21:16.004Z,63.99
2022-09-26T08:22:16.024Z,65.87
2022-09-26T08:23:15.990Z,63.78
2022-09-26T08:24:16.203Z,64.90
2022-09-26T08:25:15.981Z,64.93
2022-09-26T08:26:15.966Z,65.15
2022-09-26T08:27:15.953Z,63.89
2022-09-26T08:28:15.943Z,64.89
2022-09-26T08:29:15.943Z,64.82
2022-09-26T08:30:15.922Z,64.97
2022-09-26T08:31:15.962Z,64.70
2022-09-26T08:32:15.906Z,63.78
2022-09-26T08:33:15.885Z,65.66
2022-09-26T08:34:16.087Z,64.44
2022-09-26T08:35:15.936Z,65.09
2022-09-26T08:36:15.883Z,64.00
2022-09-26T08:37:15.869Z,64.76
2022-09-26T08:38:15.847Z,64.63
2022-09-26T08:39:16.038Z,64.97
2022-09-26T08:40:15.929Z,65.44
2022-09-26T08:41:15.795Z,66.11
2022-09-26T08:42:15.796Z,64.94
2022-09-26T08:43:15.787Z,64.30
2022-09-26T08:44:15.887Z,65.13
2022-09-26T08:45:15.757Z,64.57
2022-09-26T08:46:15.788Z,64.68
2022-09-26T08:47:15.738Z,64.21
2022-09-26T08:48:15.729Z,64.30
2022-09-26T08:49:15.742Z,65.45
2022-09-26T08:50:15.715Z,65.70
2022-09-26T08:51:15.698Z,65.12
2022-09-26T08:52:15.691Z,65.08
2022-09-26T08:53:15.674Z,65.12
2022-09-26T08:54:15.763Z,64.53
2022-09-26T08:55:15.663Z,64.81
2022-09-26T08:56:15.647Z,64.37
2022-09-26T08:57:15.631Z,64.74
2022-09-26T08:58:15.622Z,63.91
2022-09-26T08:59:15.636Z,65.57
2022-09-26T09:00:15.753Z,63.70
2022-09-26T09:01:15.658Z,63.87
2022-09-26T09:02:15.676Z,63.95
2022-09-26T09:03:15.685Z,64.49
2022-09-26T09:04:15.764Z,65.52
2022-09-26T09:05:15.551Z,66.16
2022-09-26T09:06:15.536Z,65.49
2022-09-26T09:07:15.543Z,64.87
2022-09-26T09:08:15.530Z,65.19
2022-09-26T09:09:15.534Z,64.26
2022-09-26T09:10:15.509Z,64.58
2022-09-26T09:11:15.499Z,65.53
2022-09-26T09:12:15.482Z,65.23
2022-09-26T09:13:15.477Z,65.56
2022-09-26T09:14:15.615Z,65.14
2022-09-26T09:15:25.131Z,65.55
2022-09-26T09:16:17.537Z,66.11
2022-09-26T09:17:15.434Z,65.65
2022-09-26T09:18:15.418Z,64.65
2022-09-26T09:19:15.432Z,64.21
2022-09-26T09:20:15.408Z,64.04
2022-09-26T09:21:15.404Z,65.10
2022-09-26T09:22:15.378Z,66.64
2022-09-26T09:23:15.373Z,65.50
2022-09-26T09:24:15.505Z,66.16
2022-09-26T09:25:15.340Z,64.71
2022-09-26T09:28:17.320Z,65.46
2022-09-26T09:29:19.217Z,63.24
2022-09-26T09:30:17.107Z,63.44
2022-09-26T09:31:16.393Z,63.60
2022-09-26T09:32:15.283Z,63.44
2022-09-26T09:33:15.300Z,65.01
2022-09-26T09:34:15.502Z,65.16
2022-09-26T09:35:15.250Z,63.73
2022-09-26T09:36:15.245Z,63.24
2022-09-26T09:37:15.234Z,63.65
2022-09-26T09:38:15.220Z,63.60
2022-09-26T09:39:15.213Z,63.04
2022-09-26T09:40:15.265Z,64.25
2022-09-26T09:41:15.178Z,63.18
2022-09-26T09:42:15.175Z,63.54
2022-09-26T09:43:15.189Z,63.90
2022-09-26T09:44:15.289Z,64.27
2022-09-26T09:45:15.163Z,63.26
2022-09-26T09:46:16.183Z,62.38
2022-09-26T09:47:15.166Z,63.42
2022-09-26T09:48:15.117Z,64.08
2022-09-26T09:49:15.100Z,63.55
2022-09-26T09:50:15.120Z,62.43
2022-09-26T09:51:15.084Z,62.87
2022-09-26T09:52:15.083Z,64.16
2022-09-26T09:53:15.068Z,63.91
2022-09-26T09:54:15.142Z,64.51
2022-09-26T09:55:15.067Z,63.71
2022-09-26T09:56:15.045Z,65.14
2022-09-26T09:57:15.017Z,63.41
2022-09-26T09:58:15.017Z,63.21
2022-09-26T09:59:15.018Z,62.80
2022-09-26T10:00:15.019Z,62.20
2022-09-26T10:01:14.994Z,64.19
2022-09-26T10:02:14.967Z,63.63
2022-09-26T10:03:16.047Z,63.08
2022-09-26T10:04:15.079Z,62.10
2022-09-26T10:05:14.966Z,64.12
2022-09-26T10:06:45.861Z,62.96
2022-09-26T10:07:15.933Z,62.98
2022-09-26T10:08:14.919Z,64.35
2022-09-26T10:09:35.928Z,62.38
2022-09-26T10:10:15.927Z,62.16
2022-09-26T10:11:14.893Z,62.79
2022-09-26T10:12:14.892Z,63.25
2022-09-26T10:13:14.860Z,62.54
2022-09-26T10:14:14.920Z,62.53
2022-09-26T10:15:14.864Z,63.34
2022-09-26T10:16:14.964Z,63.30
2022-09-26T10:17:14.828Z,63.80
2022-09-26T10:18:30.053Z,64.65
2022-09-26T10:19:16.833Z,63.93
2022-09-26T10:20:14.897Z,64.60
2022-09-26T10:21:14.798Z,62.89
2022-09-26T10:22:14.773Z,63.30
2022-09-26T10:23:14.769Z,62.96
2022-09-26T10:24:14.884Z,61.94
2022-09-26T10:25:14.769Z,62.77
2022-09-26T10:26:14.738Z,64.03
2022-09-26T10:27:14.733Z,62.96
2022-09-26T10:28:14.712Z,63.85
2022-09-26T10:29:14.701Z,64.47
2022-09-26T10:30:14.800Z,64.93
2022-09-26T10:31:14.783Z,62.05
2022-09-26T10:32:14.676Z,62.48
2022-09-26T10:33:14.658Z,62.54
2022-09-26T10:34:14.696Z,63.31
2022-09-26T10:35:19.317Z,63.54
2022-09-26T10:36:16.646Z,63.42
2022-09-26T10:37:14.624Z,63.46
2022-09-26T10:38:14.618Z,63.64
2022-09-26T10:39:14.592Z,63.55
2022-09-26T10:40:15.773Z,63.63
2022-09-26T10:41:14.582Z,62.93
2022-09-26T10:42:14.573Z,62.35
2022-09-26T10:43:14.566Z,63.80
2022-09-26T10:44:14.664Z,63.80
2022-09-26T10:45:14.566Z,64.12
2022-09-26T10:46:14.611Z,64.35
2022-09-26T10:47:14.528Z,63.84
2022-09-26T10:48:14.521Z,63.52
2022-09-26T10:49:14.499Z,61.97
2022-09-26T10:50:14.588Z,63.17
2022-09-26T10:51:14.492Z,63.07
2022-09-26T10:52:18.356Z,62.79
2022-09-26T10:53:15.481Z,63.13
2022-09-26T10:54:14.565Z,61.94
2022-09-26T10:55:14.469Z,63.10
2022-09-26T10:56:14.444Z,62.95
2022-09-26T10:57:14.425Z,62.24
2022-09-26T10:58:15.411Z,62.54
2022-09-26T10:59:14.405Z,63.22
2022-09-26T11:00:14.553Z,62.02
2022-09-26T11:01:14.413Z,62.41
2022-09-26T11:02:14.494Z,62.62
2022-09-26T11:03:14.414Z,62.08
2022-09-26T11:04:14.495Z,62.25
2022-09-26T11:05:14.367Z,62.24
2022-09-26T11:06:14.330Z,63.04
2022-09-26T11:07:14.319Z,63.06
2022-09-26T11:08:14.312Z,61.88
2022-09-26T11:09:14.295Z,63.33
2022-09-26T11:10:19.161Z,62.81
2022-09-26T11:11:46.679Z,62.97
2022-09-26T11:12:14.271Z,62.46
2022-09-26T11:13:14.258Z,63.03
2022-09-26T11:14:14.333Z,63.36
2022-09-26T11:15:14.263Z,64.32
2022-09-26T11:16:14.283Z,64.11
2022-09-26T11:17:14.211Z,62.20
2022-09-26T11:18:14.207Z,64.07
2022-09-26T11:19:14.337Z,64.87
2022-09-26T11:20:14.209Z,64.10
2022-09-26T11:21:27.819Z,63.72
2022-09-26T11:22:16.179Z,64.37
2022-09-26T11:23:14.169Z,63.35
2022-09-26T11:24:14.326Z,63.91
2022-09-26T11:25:14.229Z,63.03
2022-09-26T11:26:14.131Z,63.25
2022-09-26T11:27:14.145Z,64.76
2022-09-26T11:28:14.097Z,63.91
2022-09-26T11:29:14.195Z,63.57
2022-09-26T11:30:14.112Z,63.41
2022-09-26T11:31:14.124Z,63.82
2022-09-26T11:32:14.057Z,62.99
2022-09-26T11:33:14.057Z,63.37
2022-09-26T11:34:14.200Z,64.74
2022-09-26T11:35:14.052Z,63.99
2022-09-26T11:36:14.014Z,63.80
2022-09-26T11:37:14.012Z,64.49
2022-09-26T11:38:14.008Z,64.02
2022-09-26T11:39:14.126Z,64.32
2022-09-26T11:40:14.084Z,63.60
2022-09-26T11:41:13.982Z,63.78
2022-09-26T11:42:13.961Z,63.80
2022-09-26T11:43:13.958Z,64.73
2022-09-26T11:44:13.958Z,64.78
2022-09-26T11:45:13.947Z,64.48
2022-09-26T11:46:14.119Z,64.43
2022-09-26T11:47:13.918Z,64.91
2022-09-26T11:48:13.894Z,63.79
2022-09-26T11:49:13.901Z,63.51
2022-09-26T11:50:13.902Z,64.11
2022-09-26T11:51:13.882Z,63.77
2022-09-26T11:52:13.862Z,63.88
2022-09-26T11:53:13.858Z,63.03
2022-09-26T11:54:13.998Z,63.78
2022-09-26T11:55:13.861Z,64.42
2022-09-26T11:56:13.840Z,64.20
2022-09-26T11:57:13.819Z,63.73
2022-09-26T11:58:13.802Z,63.79
2022-09-26T11:59:13.792Z,63.64
2022-09-26T12:00:13.800Z,64.13
2022-09-26T12:01:13.789Z,63.58
2022-09-26T12:02:13.809Z,63.48
2022-09-26T12:03:13.982Z,63.60
2022-09-26T12:04:13.900Z,64.63
2022-09-26T12:05:13.744Z,65.63
2022-09-26T12:06:14.739Z,64.87
2022-09-26T12:07:13.713Z,64.27
2022-09-26T12:08:13.705Z,63.96
2022-09-26T12:09:13.696Z,64.36
2022-09-26T12:10:13.704Z,64.71
2022-09-26T12:11:13.675Z,64.45
2022-09-26T12:12:13.670Z,63.75
2022-09-26T12:13:13.647Z,64.53
2022-09-26T12:14:13.736Z,64.02
2022-09-26T12:15:13.711Z,64.69
2022-09-26T12:16:13.690Z,63.90
2022-09-26T12:17:13.618Z,65.38
2022-09-26T12:18:13.612Z,64.92
2022-09-26T12:19:16.411Z,64.56
2022-09-26T12:20:14.601Z,64.11
2022-09-26T12:21:13.570Z,65.24
2022-09-26T12:22:13.566Z,66.32
2022-09-26T12:23:13.564Z,64.93
2022-09-26T12:24:13.550Z,65.15
2022-09-26T12:25:17.821Z,64.62
2022-09-26T12:26:15.527Z,65.36
2022-09-26T12:27:13.518Z,64.85
2022-09-26T12:28:13.503Z,65.16
2022-09-26T12:29:13.498Z,65.06
2022-09-26T12:30:13.501Z,64.44
2022-09-26T12:31:18.708Z,66.26
2022-09-26T12:32:14.455Z,66.42
2022-09-26T12:33:13.456Z,66.73
2022-09-26T12:34:13.445Z,65.95
2022-09-26T12:35:13.453Z,66.19
2022-09-26T12:36:13.410Z,66.40
2022-09-26T12:37:13.413Z,65.83
2022-09-26T12:38:13.400Z,65.44
2022-09-26T12:39:13.408Z,66.11
2022-09-26T12:40:13.470Z,67.33
2022-09-26T12:41:13.365Z,66.99
2022-09-26T12:42:13.375Z,66.14
2022-09-26T12:43:13.354Z,65.81
2022-09-26T12:44:13.348Z,67.53
2022-09-26T12:45:13.357Z,66.29
2022-09-26T12:46:13.400Z,66.67
2022-09-26T12:47:13.320Z,66.68
2022-09-26T12:48:13.308Z,66.32
2022-09-26T12:49:13.371Z,65.53
2022-09-26T12:50:13.305Z,65.76
2022-09-26T12:51:13.283Z,66.43
2022-09-26T12:52:13.270Z,65.05
2022-09-26T12:53:13.303Z,65.56
2022-09-26T12:54:13.270Z,65.22
2022-09-26T12:55:13.279Z,65.74
2022-09-26T12:56:13.313Z,65.31
2022-09-26T12:57:13.246Z,65.36
2022-09-26T12:58:13.206Z,65.81